sensor_id;sensor_type;location;lat;lon;timestamp;P1;durP1;ratioP1;P2;durP2;ratioP2
34019;SDS011;20895;51.034;3.742;2023-03-12T00:01:56;9.02;;;4.20;;
34019;SDS011;20895;51.034;3.742;2023-03-12T00:04:22;9.10;;;4.07;;
34019;SDS011;20895;51.034;3.742;2023-03-12T00:06:47;6.57;;;2.97;;
34019;SDS011;20895;51.034;3.742;2023-03-12T00:09:12;10.52;;;4.60;;
34019;SDS011;20895;51.034;3.742;2023-03-12T00:11:38;8.48;;;3.47;;
34019;SDS011;20895;51.034;3.742;2023-03-12T00:14:03;9.20;;;4.20;;
34019;SDS011;20895;51.034;3.742;2023-03-12T00:16:28;14.20;;;5.18;;
34019;SDS011;20895;51.034;3.742;2023-03-12T00:18:54;13.48;;;3.97;;
34019;SDS011;20895;51.034;3.742;2023-03-12T00:21:19;12.93;;;3.97;;
34019;SDS011;20895;51.034;3.742;2023-03-12T00:23:49;6.50;;;3.67;;
34019;SDS011;20895;51.034;3.742;2023-03-12T00:26:14;6.75;;;3.00;;
34019;SDS011;20895;51.034;3.742;2023-03-12T00:28:40;10.20;;;2.90;;
34019;SDS011;20895;51.034;3.742;2023-03-12T00:31:13;7.28;;;3.50;;
34019;SDS011;20895;51.034;3.742;2023-03-12T00:33:38;5.63;;;3.13;;
34019;SDS011;20895;51.034;3.742;2023-03-12T00:36:04;8.75;;;3.65;;
34019;SDS011;20895;51.034;3.742;2023-03-12T00:38:29;7.65;;;3.25;;
34019;SDS011;20895;51.034;3.742;2023-03-12T00:40:54;9.75;;;3.63;;
34019;SDS011;20895;51.034;3.742;2023-03-12T00:43:20;7.72;;;3.10;;
34019;SDS011;20895;51.034;3.742;2023-03-12T00:45:45;6.43;;;3.33;;
34019;SDS011;20895;51.034;3.742;2023-03-12T00:48:10;4.95;;;2.83;;
34019;SDS011;20895;51.034;3.742;2023-03-12T00:50:35;5.50;;;2.83;;
34019;SDS011;20895;51.034;3.742;2023-03-12T00:53:01;9.73;;;3.00;;
34019;SDS011;20895;51.034;3.742;2023-03-12T00:55:26;4.75;;;2.85;;
34019;SDS011;20895;51.034;3.742;2023-03-12T00:57:51;6.30;;;2.85;;
34019;SDS011;20895;51.034;3.742;2023-03-12T01:00:16;7.60;;;2.83;;
34019;SDS011;20895;51.034;3.742;2023-03-12T01:02:42;5.30;;;2.80;;
34019;SDS011;20895;51.034;3.742;2023-03-12T01:05:08;5.18;;;2.80;;
34019;SDS011;20895;51.034;3.742;2023-03-12T01:07:34;5.75;;;3.05;;
34019;SDS011;20895;51.034;3.742;2023-03-12T01:10:00;7.20;;;3.10;;
34019;SDS011;20895;51.034;3.742;2023-03-12T01:12:25;9.20;;;3.38;;
34019;SDS011;20895;51.034;3.742;2023-03-12T01:14:51;8.75;;;3.25;;
34019;SDS011;20895;51.034;3.742;2023-03-12T01:17:16;6.25;;;2.97;;
34019;SDS011;20895;51.034;3.742;2023-03-12T01:19:41;5.50;;;2.83;;
34019;SDS011;20895;51.034;3.742;2023-03-12T01:22:07;8.23;;;3.00;;
34019;SDS011;20895;51.034;3.742;2023-03-12T01:24:32;8.48;;;3.22;;
34019;SDS011;20895;51.034;3.742;2023-03-12T01:26:57;3.83;;;2.35;;
34019;SDS011;20895;51.034;3.742;2023-03-12T01:29:23;6.70;;;3.03;;
34019;SDS011;20895;51.034;3.742;2023-03-12T01:31:48;5.35;;;2.55;;
34019;SDS011;20895;51.034;3.742;2023-03-12T01:34:13;6.32;;;2.75;;
34019;SDS011;20895;51.034;3.742;2023-03-12T01:36:38;4.45;;;2.67;;
34019;SDS011;20895;51.034;3.742;2023-03-12T01:39:04;6.78;;;3.33;;
34019;SDS011;20895;51.034;3.742;2023-03-12T01:41:30;3.80;;;2.20;;
34019;SDS011;20895;51.034;3.742;2023-03-12T01:43:58;8.32;;;3.15;;
34019;SDS011;20895;51.034;3.742;2023-03-12T01:46:32;6.38;;;2.75;;
34019;SDS011;20895;51.034;3.742;2023-03-12T01:51:27;6.72;;;2.75;;
34019;SDS011;20895;51.034;3.742;2023-03-12T01:53:54;4.25;;;2.72;;
34019;SDS011;20895;51.034;3.742;2023-03-12T01:56:20;3.78;;;2.28;;
34019;SDS011;20895;51.034;3.742;2023-03-12T01:58:57;6.88;;;2.60;;
34019;SDS011;20895;51.034;3.742;2023-03-12T02:01:24;7.45;;;2.78;;
34019;SDS011;20895;51.034;3.742;2023-03-12T02:03:50;6.50;;;2.72;;
34019;SDS011;20895;51.034;3.742;2023-03-12T02:06:16;9.18;;;3.45;;
34019;SDS011;20895;51.034;3.742;2023-03-12T02:08:44;5.53;;;3.10;;
34019;SDS011;20895;51.034;3.742;2023-03-12T02:11:10;6.57;;;2.95;;
34019;SDS011;20895;51.034;3.742;2023-03-12T02:13:35;10.82;;;3.75;;
34019;SDS011;20895;51.034;3.742;2023-03-12T02:16:00;7.72;;;3.78;;
34019;SDS011;20895;51.034;3.742;2023-03-12T02:18:26;6.75;;;3.17;;
34019;SDS011;20895;51.034;3.742;2023-03-12T02:21:00;5.68;;;3.85;;
34019;SDS011;20895;51.034;3.742;2023-03-12T02:23:37;7.07;;;3.83;;
34019;SDS011;20895;51.034;3.742;2023-03-12T02:26:03;8.38;;;3.60;;
34019;SDS011;20895;51.034;3.742;2023-03-12T02:28:29;6.47;;;3.65;;
34019;SDS011;20895;51.034;3.742;2023-03-12T02:30:58;10.68;;;4.15;;
34019;SDS011;20895;51.034;3.742;2023-03-12T02:33:24;13.15;;;3.65;;
34019;SDS011;20895;51.034;3.742;2023-03-12T02:35:50;13.00;;;3.92;;
34019;SDS011;20895;51.034;3.742;2023-03-12T02:40:50;8.48;;;3.30;;
34019;SDS011;20895;51.034;3.742;2023-03-12T02:43:15;7.85;;;3.85;;
34019;SDS011;20895;51.034;3.742;2023-03-12T02:45:42;5.22;;;2.95;;
34019;SDS011;20895;51.034;3.742;2023-03-12T02:48:07;6.10;;;3.17;;
34019;SDS011;20895;51.034;3.742;2023-03-12T02:50:33;6.40;;;3.33;;
34019;SDS011;20895;51.034;3.742;2023-03-12T02:52:58;10.23;;;3.50;;
34019;SDS011;20895;51.034;3.742;2023-03-12T02:55:23;8.15;;;3.45;;
34019;SDS011;20895;51.034;3.742;2023-03-12T02:57:49;5.82;;;3.10;;
34019;SDS011;20895;51.034;3.742;2023-03-12T03:00:14;9.23;;;4.20;;
34019;SDS011;20895;51.034;3.742;2023-03-12T03:02:40;6.47;;;3.55;;
34019;SDS011;20895;51.034;3.742;2023-03-12T03:05:06;5.18;;;2.92;;
34019;SDS011;20895;51.034;3.742;2023-03-12T03:07:31;10.27;;;3.33;;
34019;SDS011;20895;51.034;3.742;2023-03-12T03:09:57;7.20;;;3.38;;
34019;SDS011;20895;51.034;3.742;2023-03-12T03:12:28;7.25;;;3.20;;
34019;SDS011;20895;51.034;3.742;2023-03-12T03:14:53;8.60;;;2.90;;
34019;SDS011;20895;51.034;3.742;2023-03-12T03:17:18;6.03;;;2.90;;
34019;SDS011;20895;51.034;3.742;2023-03-12T03:19:43;8.68;;;3.97;;
34019;SDS011;20895;51.034;3.742;2023-03-12T03:22:09;6.95;;;3.58;;
34019;SDS011;20895;51.034;3.742;2023-03-12T03:24:34;5.10;;;3.58;;
34019;SDS011;20895;51.034;3.742;2023-03-12T03:27:00;10.23;;;4.47;;
34019;SDS011;20895;51.034;3.742;2023-03-12T03:29:25;6.50;;;4.30;;
34019;SDS011;20895;51.034;3.742;2023-03-12T03:31:50;10.55;;;5.63;;
34019;SDS011;20895;51.034;3.742;2023-03-12T03:34:16;8.40;;;3.65;;
34019;SDS011;20895;51.034;3.742;2023-03-12T03:36:41;6.60;;;3.40;;
34019;SDS011;20895;51.034;3.742;2023-03-12T03:39:06;8.80;;;4.00;;
34019;SDS011;20895;51.034;3.742;2023-03-12T03:41:32;7.47;;;4.15;;
34019;SDS011;20895;51.034;3.742;2023-03-12T03:43:57;10.63;;;3.83;;
34019;SDS011;20895;51.034;3.742;2023-03-12T03:46:23;9.82;;;4.13;;
34019;SDS011;20895;51.034;3.742;2023-03-12T03:48:49;11.82;;;5.85;;
34019;SDS011;20895;51.034;3.742;2023-03-12T03:51:15;8.23;;;4.13;;
34019;SDS011;20895;51.034;3.742;2023-03-12T03:53:40;10.02;;;4.22;;
34019;SDS011;20895;51.034;3.742;2023-03-12T03:56:07;11.27;;;4.53;;
34019;SDS011;20895;51.034;3.742;2023-03-12T03:58:33;8.98;;;4.78;;
34019;SDS011;20895;51.034;3.742;2023-03-12T04:00:58;10.23;;;4.65;;
34019;SDS011;20895;51.034;3.742;2023-03-12T04:03:24;6.18;;;3.92;;
34019;SDS011;20895;51.034;3.742;2023-03-12T04:05:53;9.98;;;4.45;;
34019;SDS011;20895;51.034;3.742;2023-03-12T04:08:18;8.10;;;4.07;;
34019;SDS011;20895;51.034;3.742;2023-03-12T04:10:43;13.05;;;4.38;;
34019;SDS011;20895;51.034;3.742;2023-03-12T04:13:08;8.88;;;5.25;;
34019;SDS011;20895;51.034;3.742;2023-03-12T04:15:34;8.90;;;4.60;;
34019;SDS011;20895;51.034;3.742;2023-03-12T04:17:59;12.20;;;5.22;;
34019;SDS011;20895;51.034;3.742;2023-03-12T04:20:24;9.73;;;5.55;;
34019;SDS011;20895;51.034;3.742;2023-03-12T04:22:49;7.78;;;4.85;;
34019;SDS011;20895;51.034;3.742;2023-03-12T04:25:15;8.90;;;5.07;;
34019;SDS011;20895;51.034;3.742;2023-03-12T04:27:40;9.90;;;4.93;;
34019;SDS011;20895;51.034;3.742;2023-03-12T04:30:05;8.63;;;5.05;;
34019;SDS011;20895;51.034;3.742;2023-03-12T04:32:31;10.85;;;5.93;;
34019;SDS011;20895;51.034;3.742;2023-03-12T04:34:56;9.35;;;5.97;;
34019;SDS011;20895;51.034;3.742;2023-03-12T04:37:21;11.05;;;6.55;;
34019;SDS011;20895;51.034;3.742;2023-03-12T04:39:47;7.28;;;5.72;;
34019;SDS011;20895;51.034;3.742;2023-03-12T04:42:12;11.80;;;7.15;;
34019;SDS011;20895;51.034;3.742;2023-03-12T04:44:37;13.05;;;6.82;;
34019;SDS011;20895;51.034;3.742;2023-03-12T04:47:04;12.77;;;6.72;;
34019;SDS011;20895;51.034;3.742;2023-03-12T04:49:29;10.82;;;6.47;;
34019;SDS011;20895;51.034;3.742;2023-03-12T04:51:54;11.82;;;7.68;;
34019;SDS011;20895;51.034;3.742;2023-03-12T04:54:20;10.77;;;7.10;;
34019;SDS011;20895;51.034;3.742;2023-03-12T04:56:46;13.95;;;7.53;;
34019;SDS011;20895;51.034;3.742;2023-03-12T04:59:11;9.23;;;7.55;;
34019;SDS011;20895;51.034;3.742;2023-03-12T05:01:37;12.93;;;8.25;;
34019;SDS011;20895;51.034;3.742;2023-03-12T05:04:03;14.48;;;8.10;;
34019;SDS011;20895;51.034;3.742;2023-03-12T05:06:28;13.57;;;9.60;;
34019;SDS011;20895;51.034;3.742;2023-03-12T05:08:53;13.07;;;9.45;;
34019;SDS011;20895;51.034;3.742;2023-03-12T05:11:19;15.68;;;9.88;;
34019;SDS011;20895;51.034;3.742;2023-03-12T05:13:45;12.80;;;9.38;;
34019;SDS011;20895;51.034;3.742;2023-03-12T05:16:10;12.40;;;9.20;;
34019;SDS011;20895;51.034;3.742;2023-03-12T05:18:35;18.42;;;9.95;;
34019;SDS011;20895;51.034;3.742;2023-03-12T05:21:05;14.00;;;10.73;;
34019;SDS011;20895;51.034;3.742;2023-03-12T05:23:31;14.82;;;10.82;;
34019;SDS011;20895;51.034;3.742;2023-03-12T05:25:57;14.93;;;11.55;;
34019;SDS011;20895;51.034;3.742;2023-03-12T05:28:22;15.50;;;10.80;;
34019;SDS011;20895;51.034;3.742;2023-03-12T05:30:52;21.08;;;12.35;;
34019;SDS011;20895;51.034;3.742;2023-03-12T05:33:18;17.40;;;13.05;;
34019;SDS011;20895;51.034;3.742;2023-03-12T05:35:43;16.17;;;13.77;;
34019;SDS011;20895;51.034;3.742;2023-03-12T05:38:08;16.55;;;12.75;;
34019;SDS011;20895;51.034;3.742;2023-03-12T05:40:34;20.70;;;13.73;;
34019;SDS011;20895;51.034;3.742;2023-03-12T05:42:59;20.83;;;14.38;;
34019;SDS011;20895;51.034;3.742;2023-03-12T05:45:24;18.58;;;15.27;;
34019;SDS011;20895;51.034;3.742;2023-03-12T05:47:49;24.33;;;14.50;;
34019;SDS011;20895;51.034;3.742;2023-03-12T05:50:15;21.35;;;13.88;;
34019;SDS011;20895;51.034;3.742;2023-03-12T05:52:40;18.00;;;14.23;;
34019;SDS011;20895;51.034;3.742;2023-03-12T05:55:06;21.98;;;15.98;;
34019;SDS011;20895;51.034;3.742;2023-03-12T05:57:31;19.63;;;15.20;;
34019;SDS011;20895;51.034;3.742;2023-03-12T05:59:57;22.63;;;15.88;;
34019;SDS011;20895;51.034;3.742;2023-03-12T06:02:22;20.65;;;15.15;;
34019;SDS011;20895;51.034;3.742;2023-03-12T06:04:47;23.45;;;17.00;;
34019;SDS011;20895;51.034;3.742;2023-03-12T06:07:12;25.70;;;16.90;;
34019;SDS011;20895;51.034;3.742;2023-03-12T06:09:38;21.10;;;15.43;;
34019;SDS011;20895;51.034;3.742;2023-03-12T06:12:03;20.63;;;14.70;;
34019;SDS011;20895;51.034;3.742;2023-03-12T06:14:28;19.45;;;14.57;;
34019;SDS011;20895;51.034;3.742;2023-03-12T06:16:54;23.85;;;14.95;;
34019;SDS011;20895;51.034;3.742;2023-03-12T06:19:19;24.95;;;16.77;;
34019;SDS011;20895;51.034;3.742;2023-03-12T06:21:44;19.40;;;15.63;;
34019;SDS011;20895;51.034;3.742;2023-03-12T06:24:10;27.65;;;15.77;;
34019;SDS011;20895;51.034;3.742;2023-03-12T06:26:35;21.95;;;13.75;;
34019;SDS011;20895;51.034;3.742;2023-03-12T06:29:00;24.83;;;14.80;;
34019;SDS011;20895;51.034;3.742;2023-03-12T06:31:25;20.88;;;12.90;;
34019;SDS011;20895;51.034;3.742;2023-03-12T06:33:51;23.92;;;14.77;;
34019;SDS011;20895;51.034;3.742;2023-03-12T06:36:18;28.45;;;15.20;;
34019;SDS011;20895;51.034;3.742;2023-03-12T06:38:43;23.77;;;15.75;;
34019;SDS011;20895;51.034;3.742;2023-03-12T06:41:10;17.23;;;14.13;;
34019;SDS011;20895;51.034;3.742;2023-03-12T06:43:35;21.10;;;13.45;;
34019;SDS011;20895;51.034;3.742;2023-03-12T06:46:02;19.67;;;12.15;;
34019;SDS011;20895;51.034;3.742;2023-03-12T06:48:28;21.98;;;13.27;;
34019;SDS011;20895;51.034;3.742;2023-03-12T06:50:53;22.45;;;14.30;;
34019;SDS011;20895;51.034;3.742;2023-03-12T06:53:19;25.55;;;13.63;;
34019;SDS011;20895;51.034;3.742;2023-03-12T06:55:45;25.60;;;14.75;;
34019;SDS011;20895;51.034;3.742;2023-03-12T06:58:10;29.33;;;14.25;;
34019;SDS011;20895;51.034;3.742;2023-03-12T07:00:36;30.60;;;16.50;;
34019;SDS011;20895;51.034;3.742;2023-03-12T07:03:01;25.48;;;14.55;;
34019;SDS011;20895;51.034;3.742;2023-03-12T07:05:27;30.48;;;15.52;;
34019;SDS011;20895;51.034;3.742;2023-03-12T07:07:53;27.90;;;15.75;;
34019;SDS011;20895;51.034;3.742;2023-03-12T07:10:18;24.92;;;14.40;;
34019;SDS011;20895;51.034;3.742;2023-03-12T07:12:43;27.08;;;14.48;;
34019;SDS011;20895;51.034;3.742;2023-03-12T07:15:10;27.52;;;15.20;;
34019;SDS011;20895;51.034;3.742;2023-03-12T07:17:35;29.83;;;15.68;;
34019;SDS011;20895;51.034;3.742;2023-03-12T07:20:01;29.40;;;11.80;;
34019;SDS011;20895;51.034;3.742;2023-03-12T07:22:26;28.60;;;13.13;;
34019;SDS011;20895;51.034;3.742;2023-03-12T07:24:51;32.47;;;14.48;;
34019;SDS011;20895;51.034;3.742;2023-03-12T07:27:17;30.33;;;13.30;;
34019;SDS011;20895;51.034;3.742;2023-03-12T07:29:42;37.45;;;15.05;;
34019;SDS011;20895;51.034;3.742;2023-03-12T07:32:08;26.98;;;14.43;;
34019;SDS011;20895;51.034;3.742;2023-03-12T07:34:33;29.90;;;12.50;;
34019;SDS011;20895;51.034;3.742;2023-03-12T07:36:58;36.63;;;14.98;;
34019;SDS011;20895;51.034;3.742;2023-03-12T07:39:24;37.10;;;13.82;;
34019;SDS011;20895;51.034;3.742;2023-03-12T07:41:49;27.73;;;12.02;;
34019;SDS011;20895;51.034;3.742;2023-03-12T07:44:14;30.35;;;11.57;;
34019;SDS011;20895;51.034;3.742;2023-03-12T07:46:40;38.10;;;15.98;;
34019;SDS011;20895;51.034;3.742;2023-03-12T07:49:05;33.03;;;10.60;;
34019;SDS011;20895;51.034;3.742;2023-03-12T07:51:30;27.33;;;9.95;;
34019;SDS011;20895;51.034;3.742;2023-03-12T07:53:55;32.47;;;10.80;;
34019;SDS011;20895;51.034;3.742;2023-03-12T07:56:21;24.65;;;8.23;;
34019;SDS011;20895;51.034;3.742;2023-03-12T07:58:46;26.25;;;9.95;;
34019;SDS011;20895;51.034;3.742;2023-03-12T08:01:11;24.70;;;8.93;;
34019;SDS011;20895;51.034;3.742;2023-03-12T08:03:37;14.15;;;5.82;;
34019;SDS011;20895;51.034;3.742;2023-03-12T08:06:03;35.20;;;10.32;;
34019;SDS011;20895;51.034;3.742;2023-03-12T08:08:29;15.30;;;5.75;;
34019;SDS011;20895;51.034;3.742;2023-03-12T08:10:55;24.80;;;6.70;;
34019;SDS011;20895;51.034;3.742;2023-03-12T08:13:20;27.52;;;8.20;;
34019;SDS011;20895;51.034;3.742;2023-03-12T08:15:48;43.75;;;9.40;;
34019;SDS011;20895;51.034;3.742;2023-03-12T08:18:14;28.63;;;8.68;;
34019;SDS011;20895;51.034;3.742;2023-03-12T08:20:39;29.80;;;8.02;;
34019;SDS011;20895;51.034;3.742;2023-03-12T08:23:04;29.00;;;7.65;;
34019;SDS011;20895;51.034;3.742;2023-03-12T08:25:29;21.63;;;6.13;;
34019;SDS011;20895;51.034;3.742;2023-03-12T08:27:55;35.00;;;8.95;;
34019;SDS011;20895;51.034;3.742;2023-03-12T08:30:20;34.75;;;8.15;;
34019;SDS011;20895;51.034;3.742;2023-03-12T08:32:45;33.30;;;8.70;;
34019;SDS011;20895;51.034;3.742;2023-03-12T08:35:10;21.40;;;6.18;;
34019;SDS011;20895;51.034;3.742;2023-03-12T08:37:36;34.85;;;7.40;;
34019;SDS011;20895;51.034;3.742;2023-03-12T08:40:01;21.10;;;5.68;;
34019;SDS011;20895;51.034;3.742;2023-03-12T08:42:33;23.83;;;6.38;;
34019;SDS011;20895;51.034;3.742;2023-03-12T08:44:58;20.25;;;5.68;;
34019;SDS011;20895;51.034;3.742;2023-03-12T08:47:23;20.10;;;6.72;;
34019;SDS011;20895;51.034;3.742;2023-03-12T08:49:48;27.65;;;7.45;;
34019;SDS011;20895;51.034;3.742;2023-03-12T08:52:14;24.55;;;5.65;;
34019;SDS011;20895;51.034;3.742;2023-03-12T08:54:39;22.23;;;6.05;;
34019;SDS011;20895;51.034;3.742;2023-03-12T08:57:05;23.63;;;7.07;;
34019;SDS011;20895;51.034;3.742;2023-03-12T08:59:30;30.55;;;7.70;;
34019;SDS011;20895;51.034;3.742;2023-03-12T09:01:55;23.63;;;5.50;;
34019;SDS011;20895;51.034;3.742;2023-03-12T09:04:20;24.30;;;5.82;;
34019;SDS011;20895;51.034;3.742;2023-03-12T09:06:46;16.30;;;5.38;;
34019;SDS011;20895;51.034;3.742;2023-03-12T09:09:11;35.85;;;7.68;;
34019;SDS011;20895;51.034;3.742;2023-03-12T09:11:37;28.38;;;6.90;;
34019;SDS011;20895;51.034;3.742;2023-03-12T09:14:03;21.80;;;5.30;;
34019;SDS011;20895;51.034;3.742;2023-03-12T09:16:29;29.75;;;7.53;;
34019;SDS011;20895;51.034;3.742;2023-03-12T09:18:54;35.35;;;8.48;;
34019;SDS011;20895;51.034;3.742;2023-03-12T09:21:19;30.05;;;6.85;;
34019;SDS011;20895;51.034;3.742;2023-03-12T09:23:45;23.35;;;5.63;;
34019;SDS011;20895;51.034;3.742;2023-03-12T09:26:11;26.73;;;8.05;;
34019;SDS011;20895;51.034;3.742;2023-03-12T09:28:36;32.38;;;8.48;;
34019;SDS011;20895;51.034;3.742;2023-03-12T09:31:02;26.02;;;6.70;;
34019;SDS011;20895;51.034;3.742;2023-03-12T09:33:28;31.08;;;7.13;;
34019;SDS011;20895;51.034;3.742;2023-03-12T09:35:56;28.67;;;5.72;;
34019;SDS011;20895;51.034;3.742;2023-03-12T09:38:22;32.13;;;7.70;;
34019;SDS011;20895;51.034;3.742;2023-03-12T09:40:47;33.35;;;9.00;;
34019;SDS011;20895;51.034;3.742;2023-03-12T09:43:17;28.30;;;7.28;;
34019;SDS011;20895;51.034;3.742;2023-03-12T09:45:43;29.10;;;7.68;;
34019;SDS011;20895;51.034;3.742;2023-03-12T09:48:12;38.67;;;8.90;;
34019;SDS011;20895;51.034;3.742;2023-03-12T09:50:40;21.23;;;5.28;;
34019;SDS011;20895;51.034;3.742;2023-03-12T09:55:39;33.97;;;8.73;;
34019;SDS011;20895;51.034;3.742;2023-03-12T09:58:13;23.15;;;5.10;;
34019;SDS011;20895;51.034;3.742;2023-03-12T10:00:39;25.35;;;6.93;;
34019;SDS011;20895;51.034;3.742;2023-03-12T10:08:07;26.05;;;8.75;;
34019;SDS011;20895;51.034;3.742;2023-03-12T10:16:03;28.42;;;6.80;;
34019;SDS011;20895;51.034;3.742;2023-03-12T10:26:37;29.55;;;7.45;;
34019;SDS011;20895;51.034;3.742;2023-03-12T10:31:36;32.90;;;6.47;;
34019;SDS011;20895;51.034;3.742;2023-03-12T10:34:14;24.60;;;6.13;;
34019;SDS011;20895;51.034;3.742;2023-03-12T10:36:41;21.50;;;5.80;;
34019;SDS011;20895;51.034;3.742;2023-03-12T10:47:42;26.05;;;6.82;;
34019;SDS011;20895;51.034;3.742;2023-03-12T10:52:39;27.33;;;6.25;;
34019;SDS011;20895;51.034;3.742;2023-03-12T10:55:10;27.52;;;6.95;;
34019;SDS011;20895;51.034;3.742;2023-03-12T10:57:39;21.30;;;5.30;;
34019;SDS011;20895;51.034;3.742;2023-03-12T11:00:05;24.23;;;5.40;;
34019;SDS011;20895;51.034;3.742;2023-03-12T11:02:45;32.17;;;7.95;;
34019;SDS011;20895;51.034;3.742;2023-03-12T11:05:18;28.33;;;7.63;;
34019;SDS011;20895;51.034;3.742;2023-03-12T11:07:44;22.88;;;6.07;;
34019;SDS011;20895;51.034;3.742;2023-03-12T11:12:35;21.05;;;5.60;;
34019;SDS011;20895;51.034;3.742;2023-03-12T11:17:45;20.00;;;4.93;;
34019;SDS011;20895;51.034;3.742;2023-03-12T11:22:45;23.77;;;5.40;;
34019;SDS011;20895;51.034;3.742;2023-03-12T11:25:19;24.67;;;5.72;;
34019;SDS011;20895;51.034;3.742;2023-03-12T11:27:45;18.60;;;4.00;;
34019;SDS011;20895;51.034;3.742;2023-03-12T11:30:16;28.33;;;9.18;;
34019;SDS011;20895;51.034;3.742;2023-03-12T11:32:46;24.13;;;5.85;;
34019;SDS011;20895;51.034;3.742;2023-03-12T11:35:14;26.65;;;6.60;;
34019;SDS011;20895;51.034;3.742;2023-03-12T11:53:17;24.13;;;6.03;;
34019;SDS011;20895;51.034;3.742;2023-03-12T11:58:40;20.50;;;5.78;;
34019;SDS011;20895;51.034;3.742;2023-03-12T12:01:14;19.90;;;4.97;;
34019;SDS011;20895;51.034;3.742;2023-03-12T12:08:53;22.42;;;5.65;;
34019;SDS011;20895;51.034;3.742;2023-03-12T12:35:14;24.15;;;4.82;;
34019;SDS011;20895;51.034;3.742;2023-03-12T12:40:42;10.38;;;3.28;;
34019;SDS011;20895;51.034;3.742;2023-03-12T12:43:26;24.33;;;6.55;;
34019;SDS011;20895;51.034;3.742;2023-03-12T12:45:59;21.17;;;4.60;;
34019;SDS011;20895;51.034;3.742;2023-03-12T12:49:09;13.25;;;3.35;;
34019;SDS011;20895;51.034;3.742;2023-03-12T12:51:14;23.63;;;5.78;;
34019;SDS011;20895;51.034;3.742;2023-03-12T12:53:59;20.35;;;5.03;;
34019;SDS011;20895;51.034;3.742;2023-03-12T13:01:47;18.40;;;4.63;;
34019;SDS011;20895;51.034;3.742;2023-03-12T13:04:15;20.80;;;5.82;;
34019;SDS011;20895;51.034;3.742;2023-03-12T13:09:36;26.60;;;4.65;;
34019;SDS011;20895;51.034;3.742;2023-03-12T13:14:41;21.48;;;5.05;;
34019;SDS011;20895;51.034;3.742;2023-03-12T13:22:34;22.95;;;5.70;;
34019;SDS011;20895;51.034;3.742;2023-03-12T13:25:22;21.50;;;6.20;;
34019;SDS011;20895;51.034;3.742;2023-03-12T13:27:48;13.95;;;3.15;;
34019;SDS011;20895;51.034;3.742;2023-03-12T13:33:13;25.00;;;5.97;;
34019;SDS011;20895;51.034;3.742;2023-03-12T13:35:38;21.08;;;4.70;;
34019;SDS011;20895;51.034;3.742;2023-03-12T13:38:04;20.52;;;5.88;;
34019;SDS011;20895;51.034;3.742;2023-03-12T13:45:29;23.23;;;4.65;;
34019;SDS011;20895;51.034;3.742;2023-03-12T13:47:59;15.20;;;4.75;;
34019;SDS011;20895;51.034;3.742;2023-03-12T13:50:25;19.83;;;4.88;;
34019;SDS011;20895;51.034;3.742;2023-03-12T13:52:58;12.13;;;4.50;;
34019;SDS011;20895;51.034;3.742;2023-03-12T13:55:28;19.50;;;3.63;;
34019;SDS011;20895;51.034;3.742;2023-03-12T13:58:05;22.45;;;6.03;;
34019;SDS011;20895;51.034;3.742;2023-03-12T14:00:31;26.25;;;5.88;;
34019;SDS011;20895;51.034;3.742;2023-03-12T14:03:02;23.38;;;4.32;;
34019;SDS011;20895;51.034;3.742;2023-03-12T14:05:28;22.50;;;4.82;;
34019;SDS011;20895;51.034;3.742;2023-03-12T14:17:36;16.30;;;4.78;;
34019;SDS011;20895;51.034;3.742;2023-03-12T14:20:04;15.25;;;3.60;;
34019;SDS011;20895;51.034;3.742;2023-03-12T14:22:35;18.63;;;4.70;;
34019;SDS011;20895;51.034;3.742;2023-03-12T14:25:05;21.77;;;3.63;;
34019;SDS011;20895;51.034;3.742;2023-03-12T14:27:36;19.00;;;3.80;;
34019;SDS011;20895;51.034;3.742;2023-03-12T14:30:21;19.17;;;4.70;;
34019;SDS011;20895;51.034;3.742;2023-03-12T14:32:46;27.67;;;8.05;;
34019;SDS011;20895;51.034;3.742;2023-03-12T14:37:43;19.25;;;3.80;;
34019;SDS011;20895;51.034;3.742;2023-03-12T14:40:19;28.17;;;5.28;;
34019;SDS011;20895;51.034;3.742;2023-03-12T14:42:44;15.13;;;3.65;;
34019;SDS011;20895;51.034;3.742;2023-03-12T14:45:11;18.58;;;4.90;;
34019;SDS011;20895;51.034;3.742;2023-03-12T14:47:43;16.52;;;3.63;;
34019;SDS011;20895;51.034;3.742;2023-03-12T14:50:19;15.25;;;4.38;;
34019;SDS011;20895;51.034;3.742;2023-03-12T14:52:45;18.10;;;4.22;;
34019;SDS011;20895;51.034;3.742;2023-03-12T14:55:12;19.02;;;6.63;;
34019;SDS011;20895;51.034;3.742;2023-03-12T14:57:37;24.65;;;7.05;;
34019;SDS011;20895;51.034;3.742;2023-03-12T15:00:03;17.13;;;5.15;;
34019;SDS011;20895;51.034;3.742;2023-03-12T15:02:31;31.65;;;8.65;;
34019;SDS011;20895;51.034;3.742;2023-03-12T15:04:57;28.92;;;6.47;;
34019;SDS011;20895;51.034;3.742;2023-03-12T15:07:28;21.40;;;6.85;;
34019;SDS011;20895;51.034;3.742;2023-03-12T15:09:54;24.02;;;4.97;;
34019;SDS011;20895;51.034;3.742;2023-03-12T15:12:27;17.23;;;4.65;;
34019;SDS011;20895;51.034;3.742;2023-03-12T15:14:55;21.10;;;3.83;;
34019;SDS011;20895;51.034;3.742;2023-03-12T15:17:25;23.52;;;5.28;;
34019;SDS011;20895;51.034;3.742;2023-03-12T15:19:53;24.75;;;5.03;;
34019;SDS011;20895;51.034;3.742;2023-03-12T15:22:20;21.17;;;6.00;;
34019;SDS011;20895;51.034;3.742;2023-03-12T15:24:46;27.08;;;5.13;;
34019;SDS011;20895;51.034;3.742;2023-03-12T15:29:46;18.70;;;4.82;;
34019;SDS011;20895;51.034;3.742;2023-03-12T15:32:15;34.33;;;7.18;;
34019;SDS011;20895;51.034;3.742;2023-03-12T15:34:40;25.63;;;5.93;;
34019;SDS011;20895;51.034;3.742;2023-03-12T15:40:06;31.42;;;5.97;;
34019;SDS011;20895;51.034;3.742;2023-03-12T15:42:40;23.60;;;5.55;;
34019;SDS011;20895;51.034;3.742;2023-03-12T15:45:15;21.25;;;5.50;;
34019;SDS011;20895;51.034;3.742;2023-03-12T15:47:42;15.75;;;4.55;;
34019;SDS011;20895;51.034;3.742;2023-03-12T15:50:22;27.42;;;6.20;;
34019;SDS011;20895;51.034;3.742;2023-03-12T15:53:04;29.73;;;6.15;;
34019;SDS011;20895;51.034;3.742;2023-03-12T15:55:33;19.60;;;6.45;;
34019;SDS011;20895;51.034;3.742;2023-03-12T15:57:59;21.80;;;5.85;;
34019;SDS011;20895;51.034;3.742;2023-03-12T16:00:31;26.08;;;5.45;;
34019;SDS011;20895;51.034;3.742;2023-03-12T16:03:13;18.65;;;4.50;;
34019;SDS011;20895;51.034;3.742;2023-03-12T16:05:39;16.73;;;3.92;;
34019;SDS011;20895;51.034;3.742;2023-03-12T16:08:15;34.67;;;7.72;;
34019;SDS011;20895;51.034;3.742;2023-03-12T16:10:42;22.10;;;4.07;;
34019;SDS011;20895;51.034;3.742;2023-03-12T16:13:09;20.80;;;4.78;;
34019;SDS011;20895;51.034;3.742;2023-03-12T16:15:37;27.88;;;6.28;;
34019;SDS011;20895;51.034;3.742;2023-03-12T16:18:03;20.77;;;5.30;;
34019;SDS011;20895;51.034;3.742;2023-03-12T16:20:28;22.70;;;5.03;;
34019;SDS011;20895;51.034;3.742;2023-03-12T16:22:54;24.70;;;5.22;;
34019;SDS011;20895;51.034;3.742;2023-03-12T16:25:19;15.95;;;3.65;;
34019;SDS011;20895;51.034;3.742;2023-03-12T16:27:46;26.33;;;6.03;;
34019;SDS011;20895;51.034;3.742;2023-03-12T16:30:17;23.73;;;6.10;;
34019;SDS011;20895;51.034;3.742;2023-03-12T16:32:44;21.77;;;5.13;;
34019;SDS011;20895;51.034;3.742;2023-03-12T16:35:18;23.63;;;6.28;;
34019;SDS011;20895;51.034;3.742;2023-03-12T16:37:44;26.88;;;5.80;;
34019;SDS011;20895;51.034;3.742;2023-03-12T16:40:09;24.13;;;5.80;;
34019;SDS011;20895;51.034;3.742;2023-03-12T16:42:35;21.67;;;5.35;;
34019;SDS011;20895;51.034;3.742;2023-03-12T16:45:00;20.17;;;4.57;;
34019;SDS011;20895;51.034;3.742;2023-03-12T16:47:26;22.83;;;6.45;;
34019;SDS011;20895;51.034;3.742;2023-03-12T16:49:51;18.63;;;4.40;;
34019;SDS011;20895;51.034;3.742;2023-03-12T16:52:17;19.48;;;3.85;;
34019;SDS011;20895;51.034;3.742;2023-03-12T16:54:43;25.90;;;5.03;;